首页
METAR-TAF:

METAR-TAF

机场 :

Moosonee, 安大略省, 加拿大

纬度: 51-16N, 经度: 080-39W, 海拔: 10米

当前天气观测

该预报发布于1小时和1分钟前的11:00 UTC
风速12节,风向,有时为18节阵风
温度 -15°C
湿度 78%
气压 1016 hPa
能見度: 14.5公里
多云层高于12000英尺
阴天层高于14000英尺

METAR: CYMO 271100Z AUTO 36012G18KT 9SM BKN120 OVC140 M15/M18 A3001 RMK SLP166

时间: 07:01 (12:01 UTC)

预报

该预报发布于23分钟前的11:38 UTC
预报有效从27日的 12点(UTC)到 27日的 24点(UTC)
风速10节,风向,有时为20节阵风
能見度: 10公里
散云层高于1500英尺
多云层高于12000英尺
短暂存在
从 27日的 12点(UTC)到 27日的 15点(UTC)
多云层高于1500英尺
多云层高于12000英尺
从 27日的 1500点(UTC)
风速12节,风向,有时为22节阵风
能見度: 10公里
阴天层高于8000英尺
小雪
短暂存在
从 27日的 15点(UTC)到 27日的 18点(UTC)
能見度: 3.2公里
多云层高于2000英尺
阴天层高于8000英尺
小雪
从 27日的 1800点(UTC)
风速15节,风向,有时为25节阵风
能見度: 1.2公里
阴天层高于1200英尺
小雪
短暂存在
从 27日的 18点(UTC)到 27日的 24点(UTC)
能見度: 3.2公里
小雪

TAF: CYMO 271138Z 2712/2724 36010G20KT P6SM SCT015 BKN120 TEMPO 2712/2715 BKN015 BKN120 FM271500 36012G22KT P6SM -SN OVC080 TEMPO 2715/2718 2SM -SN BKN020 OVC080 FM271800 35015G25KT 3/4SM -SN OVC012 TEMPO 2718/2724 2SM -SN RMK FCST BASED ON AUTO OBS. NXT FCST BY 271800Z

超过4000个机场的气象观测和天气预报(METAR&TAF报告)。

可查询的气象台以黄色和红色小点在地图上表示。

将鼠标移到小点上方,可查看气象台名称。

然后点击查看天气观测和预报。

如需切换地图:点击带黑十字的绿色按钮放大地图;点击带横线的绿色按钮缩小地图;或者点击绿色箭头查看邻近地区的地图。


METAR-TAF: